Rostein — LLHI — position and weather

sailwx.info

Track history (hours):
 
Tides and Currents Weather Stations Pressure Air Temp Water Temp Dewpoint Dewpoint Depression Visibility Wind Speed Wind Dir Waves Ship Positions

Rostein

Last reported at 2017-May-24 17:30 UTC. Time now 2017-May-24 17:39 UTC.
Position N 62°09' E 005°57'.

Length 57 m; draft 4 m.

Type: Cargo ship. MMSI: 257210000.

Date/timePositionNaut miles runAvg speedWind from/ knotsBaromVisibWave heightAir tempDewpointWater temp
2017-May-24 17:30N 62°09' E 005°57'510.2
2017-May-24 17:01N 62°14' E 005°55'5 9.6
2017-May-24 16:30N 62°18' E 006°01'5 9.7
2017-May-24 16:00N 62°21' E 006°09'5 9.5
2017-May-24 15:31N 62°23' E 006°18'3 6.5
2017-May-24 15:00N 62°21' E 006°23'510.9
2017-May-24 14:30N 62°16' E 006°28'4 4.3
2017-May-24 13:30N 62°13' E 006°34'0 0.0
2017-May-24 13:01N 62°13' E 006°34'0 0.0
2017-May-24 12:30N 62°13' E 006°34'0 0.0
2017-May-24 12:00N 62°13' E 006°34'0 0.0
2017-May-24 11:31N 62°13' E 006°34'0 0.0
2017-May-24 11:00N 62°13' E 006°34'0 0.0
2017-May-24 10:30N 62°13' E 006°34'0 0.0
2017-May-24 10:00N 62°13' E 006°34'0 0.0
2017-May-24 09:30N 62°13' E 006°34'0 0.0
2017-May-24 09:00N 62°13' E 006°34'0 0.0
2017-May-24 08:30N 62°13' E 006°34'0 0.0
2017-May-24 08:00N 62°13' E 006°34'0 0.0
2017-May-24 07:30N 62°13' E 006°34'0 0.0
2017-May-24 07:00N 62°13' E 006°34'0 0.0
2017-May-24 06:23N 62°13' E 006°34'0 0.0
2017-May-24 05:24N 62°13' E 006°34'0 0.0
2017-May-24 05:01N 62°13' E 006°34'2 4.4
2017-May-24 04:29N 62°13' E 006°29'0 0.3
2017-May-24 03:59N 62°13' E 006°29'0 0.0
2017-May-24 03:30N 62°13' E 006°29'0 0.0
2017-May-24 03:00N 62°13' E 006°29'0 0.0
2017-May-24 02:30N 62°13' E 006°29'0 0.0
2017-May-24 01:59N 62°13' E 006°29'0 0.0
2017-May-24 01:29N 62°13' E 006°29'0 0.0
2017-May-24 01:00N 62°13' E 006°29'0 0.0
2017-May-24 00:30N 62°13' E 006°29'0 0.0
2017-May-24 00:00N 62°13' E 006°29'0 0.0
2017-May-23 23:30N 62°13' E 006°29'0 0.0
2017-May-23 22:59N 62°13' E 006°29'0 0.0
2017-May-23 22:29N 62°13' E 006°29'0 0.0
2017-May-23 21:59N 62°13' E 006°29'0 0.0
2017-May-23 21:29N 62°13' E 006°29'0 0.0
2017-May-23 20:58N 62°13' E 006°29'0 0.0
2017-May-23 20:29N 62°13' E 006°29'0 0.0
2017-May-23 19:59N 62°13' E 006°29'0 0.0
2017-May-23 19:30N 62°13' E 006°29'0 0.0
2017-May-23 19:00N 62°13' E 006°29'0 0.0
2017-May-23 18:30N 62°13' E 006°29'0 0.0
2017-May-23 18:00N 62°13' E 006°29'0 0.0
2017-May-23 17:30N 62°13' E 006°29'0 0.0
2017-May-23 17:00N 62°13' E 006°29'0 0.1
2017-May-23 13:43N 62°13' E 006°29'210.9
2017-May-23 13:30N 62°15' E 006°28'611.8
2017-May-23 13:00N 62°21' E 006°24'510.1
2017-May-23 12:31N 62°23' E 006°14'611.1
2017-May-23 12:00N 62°25' E 006°03'5 0.2
2017-May-22 15:16N 62°28' E 006°09'0 0.0
2017-May-22 15:00N 62°28' E 006°09'0 0.0
2017-May-22 14:00N 62°28' E 006°09'0 0.0
2017-May-22 13:30N 62°28' E 006°09'0 0.0
2017-May-22 13:00N 62°28' E 006°09'0 0.0
2017-May-22 12:30N 62°28' E 006°09'0 0.0
2017-May-22 12:00N 62°28' E 006°09'0 0.0
2017-May-22 11:30N 62°28' E 006°09'0 0.0
2017-May-22 11:00N 62°28' E 006°09'0 0.0
2017-May-22 10:30N 62°28' E 006°09'0 0.0
2017-May-22 09:59N 62°28' E 006°09'0 0.0
2017-May-22 09:30N 62°28' E 006°09'0 0.0
2017-May-22 09:00N 62°28' E 006°09'0 0.0
2017-May-22 08:30N 62°28' E 006°09'0 0.0
2017-May-22 08:00N 62°28' E 006°09'0 0.0
2017-May-22 07:30N 62°28' E 006°09'0 0.0
2017-May-22 06:59N 62°28' E 006°09'0 0.0
2017-May-22 06:30N 62°28' E 006°09'0 0.0
2017-May-22 06:00N 62°28' E 006°09'0 0.0
2017-May-22 05:30N 62°28' E 006°09'0 0.0
2017-May-22 05:00N 62°28' E 006°09'0 0.0
2017-May-22 04:30N 62°28' E 006°09'0 0.0
2017-May-22 04:00N 62°28' E 006°09'0 0.0
2017-May-22 03:30N 62°28' E 006°09'0 0.0
2017-May-22 03:00N 62°28' E 006°09'0 0.0
2017-May-22 02:30N 62°28' E 006°09'0 0.0
2017-May-22 02:00N 62°28' E 006°09'0 0.0
2017-May-22 01:30N 62°28' E 006°09'0 0.0
2017-May-22 01:00N 62°28' E 006°09'0 0.0
2017-May-22 00:30N 62°28' E 006°09'0 0.0
2017-May-22 00:00N 62°28' E 006°09'1 1.5
2017-May-21 23:30N 62°28' E 006°08'0 0.1
2017-May-21 23:00N 62°28' E 006°07'0 0.0
2017-May-21 22:29N 62°28' E 006°07'0 0.0
2017-May-21 21:59N 62°28' E 006°07'2 3.3
2017-May-21 21:30N 62°28' E 006°04'612.0
2017-May-21 21:00N 62°27' E 005°52'612.5
2017-May-21 20:30N 62°26' E 005°38'612.6
2017-May-21 20:00N 62°23' E 005°26'612.2
2017-May-21 19:30N 62°18' E 005°17'612.4
2017-May-21 19:00N 62°13' E 005°10'510.8
2017-May-21 18:30N 62°08' E 005°05'612.1
2017-May-21 18:00N 62°03' E 005°08'611.9
2017-May-21 17:30N 61°57' E 005°08'4 8.1
2017-May-21 17:00N 61°54' E 005°14'611.4
2017-May-21 16:30N 61°55' E 005°26'9 0.3
2017-May-20 12:57N 61°56' E 005°07'2 4.0
2017-May-20 12:30N 61°57' E 005°09'611.5
2017-May-20 12:00N 62°03' E 005°08'611.7
2017-May-20 11:30N 62°09' E 005°05'510.5
2017-May-20 11:01N 62°13' E 005°10'611.2
2017-May-20 10:31N 62°11' E 005°21'610.9
2017-May-20 10:00N 62°12' E 005°32'1 0.5
2017-May-20 08:02N 62°12' E 005°34'0 5.3
2017-May-20 07:59N 62°12' E 005°34'1810.1
2017-May-20 06:12N 62°23' E 006°05'211.6
2017-May-20 06:00N 62°25' E 006°03'511.1
2017-May-20 05:30N 62°30' E 006°08'611.8
2017-May-20 05:00N 62°35' E 006°14'612.6
2017-May-20 04:30N 62°39' E 006°24'612.9
2017-May-20 04:00N 62°45' E 006°32'712.9
2017-May-20 03:30N 62°50' E 006°40'612.8
2017-May-20 03:00N 62°55' E 006°47'612.4
2017-May-20 02:29N 62°60' E 006°58'612.9
2017-May-20 02:00N 63°02' E 007°11'612.6
2017-May-20 01:30N 63°04' E 007°23'612.8
2017-May-20 01:00N 63°07' E 007°36'3 5.8
2017-May-20 00:30N 63°05' E 007°40'0 0.0
2017-May-20 00:00N 63°05' E 007°40'4 7.8
2017-May-19 23:30N 63°09' E 007°43'612.4
2017-May-19 23:00N 63°13' E 007°54'612.7
2017-May-19 22:30N 63°16' E 008°07'612.5
2017-May-19 22:00N 63°20' E 008°18'612.3
2017-May-19 21:30N 63°23' E 008°29'612.4
2017-May-19 21:00N 63°26' E 008°42'612.3
2017-May-19 20:30N 63°28' E 008°55'612.8
2017-May-19 20:00N 63°30' E 009°08'612.8
2017-May-19 19:30N 63°34' E 009°20'612.1
2017-May-19 19:00N 63°39' E 009°28'612.5
2017-May-19 18:30N 63°45' E 009°32'612.6
2017-May-19 18:00N 63°50' E 009°38'612.5
2017-May-19 17:29N 63°55' E 009°47'612.4
2017-May-19 17:00N 64°01' E 009°46'612.3
2017-May-19 16:30N 64°08' E 009°46'612.2
2017-May-19 16:00N 64°14' E 009°48'611.9
2017-May-19 15:30N 64°18' E 009°57'612.0
2017-May-19 15:00N 64°22' E 010°08'1212.0
2017-May-19 14:00N 64°31' E 010°27'612.5
2017-May-19 13:30N 64°35' E 010°37'612.3
2017-May-19 13:00N 64°40' E 010°46'612.4
2017-May-19 12:30N 64°44' E 010°57'612.6
2017-May-19 12:00N 64°48' E 011°08'612.2
2017-May-19 11:30N 64°53' E 011°18'612.3
2017-May-19 11:00N 64°58' E 011°24'510.6
2017-May-19 10:30N 65°01' E 011°34'611.9
2017-May-19 10:00N 65°05' E 011°46'612.6
2017-May-19 09:30N 65°10' E 011°53'612.5
2017-May-19 09:00N 65°16' E 011°57'612.0
2017-May-19 08:30N 65°22' E 012°02'611.5
2017-May-19 07:59N 65°27' E 011°56'612.5
2017-May-19 07:30N 65°32' E 012°03'612.5
2017-May-19 07:00N 65°37' E 012°12'612.7
2017-May-19 06:30N 65°43' E 012°17'612.4
2017-May-19 06:00N 65°50' E 012°21'612.1
2017-May-19 05:30N 65°55' E 012°23'612.1
2017-May-19 05:00N 66°00' E 012°32'612.3
2017-May-19 04:30N 66°06' E 012°40'611.8
2017-May-19 04:00N 66°11' E 012°39'611.8
2017-May-19 03:30N 66°17' E 012°39'611.8
2017-May-19 03:00N 66°23' E 012°42'611.0
2017-May-19 02:30N 66°28' E 012°39'611.8
2017-May-19 02:00N 66°34' E 012°42'612.2
2017-May-19 01:30N 66°40' E 012°41'612.0
2017-May-19 01:00N 66°46' E 012°48'611.5
2017-May-19 00:30N 66°51' E 012°55'612.3
2017-May-19 00:00N 66°54' E 013°09'612.2
2017-May-18 23:30N 66°57' E 013°21'612.1
2017-May-18 23:00N 66°60' E 013°35'612.2
2017-May-18 22:30N 67°03' E 013°49'612.1
2017-May-18 22:00N 67°07' E 013°60'612.1
2017-May-18 21:31N 67°12' E 014°06'612.2
2017-May-18 21:01N 67°17' E 014°15'612.4
2017-May-18 20:31N 67°22' E 014°25'612.1
2017-May-18 20:00N 67°28' E 014°28'612.3
2017-May-18 19:30N 67°35' E 014°30'612.5
2017-May-18 19:00N 67°41' E 014°31'612.4
2017-May-18 18:30N 67°47' E 014°32'611.9
2017-May-18 18:00N 67°51' E 014°42'612.1
2017-May-18 17:30N 67°57' E 014°50'612.2
2017-May-18 17:00N 68°02' E 014°59'612.4
2017-May-18 16:30N 68°06' E 015°11'612.4
2017-May-18 16:00N 68°10' E 015°24'612.3
2017-May-18 15:30N 68°13' E 015°37'612.1
2017-May-18 15:00N 68°18' E 015°49'612.3
2017-May-18 14:30N 68°23' E 015°59'1212.1
2017-May-18 13:31N 68°33' E 016°15'612.1
2017-May-18 13:00N 68°34' E 016°32'612.3
2017-May-18 12:30N 68°40' E 016°39'612.2
2017-May-18 12:00N 68°45' E 016°45'612.0
2017-May-18 11:30N 68°51' E 016°54'611.5
2017-May-18 10:59N 68°55' E 017°04'611.7
2017-May-18 10:30N 68°60' E 017°14'611.6
2017-May-18 10:00N 69°05' E 017°23'611.5
2017-May-18 09:30N 69°07' E 017°37'611.8
2017-May-18 09:00N 69°09' E 017°52'4 9.1
2017-May-18 08:30N 69°13' E 017°58'611.2
2017-May-18 08:00N 69°19' E 017°59'510.6
2017-May-18 07:30N 69°24' E 018°06'510.5
2017-May-18 07:00N 69°29' E 018°10'612.0
2017-May-18 06:30N 69°31' E 018°26'611.8
2017-May-18 06:00N 69°33' E 018°42'511.0
2017-May-18 05:31N 69°36' E 018°54'2 3.6
2017-May-18 05:00N 69°38' E 018°56'1 2.6
2017-May-18 04:30N 69°39' E 018°59'5 9.4
2017-May-18 04:00N 69°43' E 019°04'4 9.0
2017-May-18 03:30N 69°47' E 019°13'5 9.3
2017-May-18 03:00N 69°48' E 019°26'5 9.2
2017-May-18 02:30N 69°50' E 019°38'5 9.1
2017-May-18 02:00N 69°53' E 019°49'4 9.1
2017-May-18 01:30N 69°55' E 019°59'5 9.3
2017-May-18 01:00N 69°58' E 020°10'5 9.0
2017-May-18 00:30N 69°60' E 020°23'4 8.9
2017-May-18 00:00N 70°01' E 020°35'5 9.8
2017-May-17 23:30N 70°03' E 020°48'3 5.3
2017-May-17 23:01N 70°05' E 020°46'0 0.0
2017-May-17 22:30N 70°05' E 020°46'1 1.1
2017-May-17 22:01N 70°06' E 020°46'5 9.1
2017-May-17 21:30N 70°10' E 020°52'5 9.4
2017-May-17 21:00N 70°13' E 021°03'510.2
2017-May-17 20:30N 70°16' E 021°16'510.2
2017-May-17 20:01N 70°19' E 021°27'5 9.0
2017-May-17 19:30N 70°22' E 021°37'4 6.2
2017-May-17 18:46N 70°24' E 021°49'310.2
2017-May-17 18:30N 70°24' E 021°57'4 7.3
2017-May-17 18:00N 70°24' E 022°08'510.1
2017-May-17 17:30N 70°24' E 022°23'510.0
2017-May-17 17:00N 70°24' E 022°38'5 9.4
2017-May-17 16:30N 70°22' E 022°51'3 5.4
2017-May-17 16:00N 70°20' E 022°57'1 1.2
2017-May-17 15:31N 70°21' E 022°58'0 0.0
2017-May-17 15:00N 70°21' E 022°58'4 3.6
2017-May-17 13:59N 70°17' E 023°02'612.1
2017-May-17 13:29N 70°11' E 023°04'612.3
2017-May-17 13:00N 70°05' E 023°06'612.4
2017-May-17 12:31N 69°59' E 023°09'3 5.5
2017-May-17 12:00N 69°57' E 023°06'0 0.0
2017-May-17 11:30N 69°57' E 023°06'0 0.0
2017-May-17 11:00N 69°57' E 023°06'2 3.0
2017-May-17 10:30N 69°58' E 023°09'510.2
2017-May-17 10:00N 70°03' E 023°08'510.2
2017-May-17 09:30N 70°08' E 023°06'510.3
2017-May-17 09:00N 70°13' E 023°04'12 9.8
2017-May-17 07:48N 70°24' E 022°49'3 9.3
2017-May-17 07:30N 70°26' E 022°50'5 9.8
2017-May-17 07:00N 70°30' E 022°58'5 9.5
2017-May-17 06:30N 70°34' E 023°07'5 9.6
2017-May-17 06:00N 70°38' E 023°17'5 9.4
2017-May-17 05:30N 70°41' E 023°26'5 9.5
2017-May-17 05:00N 70°45' E 023°36'5 9.8
2017-May-17 04:30N 70°48' E 023°47'510.2
2017-May-17 04:00N 70°51' E 023°59'5 9.9
2017-May-17 03:30N 70°55' E 024°10'5 9.8
2017-May-17 03:00N 70°58' E 024°20'5 9.8
2017-May-17 02:30N 71°01' E 024°32'5 9.4
2017-May-17 02:00N 71°01' E 024°46'510.1
2017-May-17 01:30N 70°59' E 025°01'510.1
2017-May-17 01:00N 70°59' E 025°16'5 9.6
2017-May-17 00:30N 70°57' E 025°29'4 7.2
2017-May-17 00:00N 70°54' E 025°34'0 0.0
2017-May-16 23:30N 70°54' E 025°34'0 0.0
2017-May-16 23:00N 70°54' E 025°34'0 0.0
2017-May-16 22:30N 70°54' E 025°34'0 0.0
2017-May-16 22:00N 70°54' E 025°34'0 0.0
2017-May-16 21:30N 70°54' E 025°34'0 0.0
2017-May-16 21:00N 70°54' E 025°34'0 0.0
2017-May-16 20:30N 70°54' E 025°34'1 2.1
2017-May-16 20:00N 70°55' E 025°35'611.4
2017-May-16 19:30N 70°57' E 025°51'611.9
2017-May-16 19:00N 70°59' E 026°08'611.8
2017-May-16 18:30N 71°01' E 026°26'611.4
2017-May-16 18:00N 71°03' E 026°42'511.1
2017-May-16 17:30N 71°05' E 026°58'510.8
2017-May-16 17:00N 71°06' E 027°14'510.7
2017-May-16 16:31N 71°08' E 027°29'510.6
2017-May-16 16:00N 71°09' E 027°46'611.2
2017-May-16 15:30N 71°08' E 028°03'510.7
2017-May-16 15:00N 71°06' E 028°19'611.1
2017-May-16 14:30N 71°03' E 028°33'1111.0
2017-May-16 13:30N 70°58' E 029°02'611.1
2017-May-16 13:00N 70°55' E 029°16'511.1
2017-May-16 12:30N 70°51' E 029°30'611.1
2017-May-16 12:00N 70°48' E 029°45'611.1
2017-May-16 11:30N 70°46' E 030°00'611.2
2017-May-16 11:00N 70°43' E 030°13'611.5
2017-May-16 10:30N 70°39' E 030°26'611.4
2017-May-16 10:00N 70°35' E 030°38'611.2
2017-May-16 09:30N 70°31' E 030°49'611.0
2017-May-16 09:00N 70°27' E 031°01'611.2
2017-May-16 08:30N 70°21' E 031°06'611.1
2017-May-16 08:00N 70°17' E 031°15'611.5
2017-May-16 07:31N 70°12' E 031°25'510.7
2017-May-16 07:00N 70°08' E 031°36'510.3
2017-May-16 06:31N 70°06' E 031°49'2 0.0
2017-May-14 21:00N 70°05' E 031°53'5 9.1
2017-May-14 20:30N 70°07' E 031°41'510.2
2017-May-14 20:00N 70°10' E 031°30'510.4
2017-May-14 19:30N 70°14' E 031°20'510.5
2017-May-14 19:00N 70°19' E 031°10'510.6
2017-May-14 18:30N 70°23' E 031°03'611.2
2017-May-14 18:00N 70°28' E 030°57'611.1
2017-May-14 17:30N 70°32' E 030°45'  
Track history (hours):
 
Tides and Currents Weather Stations Pressure Air Temp Water Temp Dewpoint Dewpoint Depression Visibility Wind Speed Wind Dir Waves Ship Positions

Rostein

Last reported at 2017-May-24 17:30 UTC. Time now 2017-May-24 17:39 UTC.
Position N 62°09' E 005°57'.

Length 57 m; draft 4 m.

Type: Cargo ship. MMSI: 257210000.

Date/timePositionNaut miles runAvg speedWind from/ knotsBaromVisibWave heightAir tempDewpointWater temp
2017-May-24 17:30N 62°09' E 005°57'510.2
2017-May-24 17:01N 62°14' E 005°55'5 9.6
2017-May-24 16:30N 62°18' E 006°01'5 9.7
2017-May-24 16:00N 62°21' E 006°09'5 9.5
2017-May-24 15:31N 62°23' E 006°18'3 6.5
2017-May-24 15:00N 62°21' E 006°23'510.9
2017-May-24 14:30N 62°16' E 006°28'4 4.3
2017-May-24 13:30N 62°13' E 006°34'0 0.0
2017-May-24 13:01N 62°13' E 006°34'0 0.0
2017-May-24 12:30N 62°13' E 006°34'0 0.0
2017-May-24 12:00N 62°13' E 006°34'0 0.0
2017-May-24 11:31N 62°13' E 006°34'0 0.0
2017-May-24 11:00N 62°13' E 006°34'0 0.0
2017-May-24 10:30N 62°13' E 006°34'0 0.0
2017-May-24 10:00N 62°13' E 006°34'0 0.0
2017-May-24 09:30N 62°13' E 006°34'0 0.0
2017-May-24 09:00N 62°13' E 006°34'0 0.0
2017-May-24 08:30N 62°13' E 006°34'0 0.0
2017-May-24 08:00N 62°13' E 006°34'0 0.0
2017-May-24 07:30N 62°13' E 006°34'0 0.0
2017-May-24 07:00N 62°13' E 006°34'0 0.0
2017-May-24 06:23N 62°13' E 006°34'0 0.0
2017-May-24 05:24N 62°13' E 006°34'0 0.0
2017-May-24 05:01N 62°13' E 006°34'2 4.4
2017-May-24 04:29N 62°13' E 006°29'0 0.3
2017-May-24 03:59N 62°13' E 006°29'0 0.0
2017-May-24 03:30N 62°13' E 006°29'0 0.0
2017-May-24 03:00N 62°13' E 006°29'0 0.0
2017-May-24 02:30N 62°13' E 006°29'0 0.0
2017-May-24 01:59N 62°13' E 006°29'0 0.0
2017-May-24 01:29N 62°13' E 006°29'0 0.0
2017-May-24 01:00N 62°13' E 006°29'0 0.0
2017-May-24 00:30N 62°13' E 006°29'0 0.0
2017-May-24 00:00N 62°13' E 006°29'0 0.0
2017-May-23 23:30N 62°13' E 006°29'0 0.0
2017-May-23 22:59N 62°13' E 006°29'0 0.0
2017-May-23 22:29N 62°13' E 006°29'0 0.0
2017-May-23 21:59N 62°13' E 006°29'0 0.0
2017-May-23 21:29N 62°13' E 006°29'0 0.0
2017-May-23 20:58N 62°13' E 006°29'0 0.0
2017-May-23 20:29N 62°13' E 006°29'0 0.0
2017-May-23 19:59N 62°13' E 006°29'0 0.0
2017-May-23 19:30N 62°13' E 006°29'0 0.0
2017-May-23 19:00N 62°13' E 006°29'0 0.0
2017-May-23 18:30N 62°13' E 006°29'0 0.0
2017-May-23 18:00N 62°13' E 006°29'0 0.0
2017-May-23 17:30N 62°13' E 006°29'0 0.0
2017-May-23 17:00N 62°13' E 006°29'0 0.1
2017-May-23 13:43N 62°13' E 006°29'210.9
2017-May-23 13:30N 62°15' E 006°28'611.8
2017-May-23 13:00N 62°21' E 006°24'510.1
2017-May-23 12:31N 62°23' E 006°14'611.1
2017-May-23 12:00N 62°25' E 006°03'5 0.2
2017-May-22 15:16N 62°28' E 006°09'0 0.0
2017-May-22 15:00N 62°28' E 006°09'0 0.0
2017-May-22 14:00N 62°28' E 006°09'0 0.0
2017-May-22 13:30N 62°28' E 006°09'0 0.0
2017-May-22 13:00N 62°28' E 006°09'0 0.0
2017-May-22 12:30N 62°28' E 006°09'0 0.0
2017-May-22 12:00N 62°28' E 006°09'0 0.0
2017-May-22 11:30N 62°28' E 006°09'0 0.0
2017-May-22 11:00N 62°28' E 006°09'0 0.0
2017-May-22 10:30N 62°28' E 006°09'0 0.0
2017-May-22 09:59N 62°28' E 006°09'0 0.0
2017-May-22 09:30N 62°28' E 006°09'0 0.0
2017-May-22 09:00N 62°28' E 006°09'0 0.0
2017-May-22 08:30N 62°28' E 006°09'0 0.0
2017-May-22 08:00N 62°28' E 006°09'0 0.0
2017-May-22 07:30N 62°28' E 006°09'0 0.0
2017-May-22 06:59N 62°28' E 006°09'0 0.0
2017-May-22 06:30N 62°28' E 006°09'0 0.0
2017-May-22 06:00N 62°28' E 006°09'0 0.0
2017-May-22 05:30N 62°28' E 006°09'0 0.0
2017-May-22 05:00N 62°28' E 006°09'0 0.0
2017-May-22 04:30N 62°28' E 006°09'0 0.0
2017-May-22 04:00N 62°28' E 006°09'0 0.0
2017-May-22 03:30N 62°28' E 006°09'0 0.0
2017-May-22 03:00N 62°28' E 006°09'0 0.0
2017-May-22 02:30N 62°28' E 006°09'0 0.0
2017-May-22 02:00N 62°28' E 006°09'0 0.0
2017-May-22 01:30N 62°28' E 006°09'0 0.0
2017-May-22 01:00N 62°28' E 006°09'0 0.0
2017-May-22 00:30N 62°28' E 006°09'0 0.0
2017-May-22 00:00N 62°28' E 006°09'1 1.5
2017-May-21 23:30N 62°28' E 006°08'0 0.1
2017-May-21 23:00N 62°28' E 006°07'0 0.0
2017-May-21 22:29N 62°28' E 006°07'0 0.0
2017-May-21 21:59N 62°28' E 006°07'2 3.3
2017-May-21 21:30N 62°28' E 006°04'612.0
2017-May-21 21:00N 62°27' E 005°52'612.5
2017-May-21 20:30N 62°26' E 005°38'612.6
2017-May-21 20:00N 62°23' E 005°26'612.2
2017-May-21 19:30N 62°18' E 005°17'612.4
2017-May-21 19:00N 62°13' E 005°10'510.8
2017-May-21 18:30N 62°08' E 005°05'612.1
2017-May-21 18:00N 62°03' E 005°08'611.9
2017-May-21 17:30N 61°57' E 005°08'4 8.1
2017-May-21 17:00N 61°54' E 005°14'611.4
2017-May-21 16:30N 61°55' E 005°26'9 0.3
2017-May-20 12:57N 61°56' E 005°07'2 4.0
2017-May-20 12:30N 61°57' E 005°09'611.5
2017-May-20 12:00N 62°03' E 005°08'611.7
2017-May-20 11:30N 62°09' E 005°05'510.5
2017-May-20 11:01N 62°13' E 005°10'611.2
2017-May-20 10:31N 62°11' E 005°21'610.9
2017-May-20 10:00N 62°12' E 005°32'1 0.5
2017-May-20 08:02N 62°12' E 005°34'0 5.3
2017-May-20 07:59N 62°12' E 005°34'1810.1
2017-May-20 06:12N 62°23' E 006°05'211.6
2017-May-20 06:00N 62°25' E 006°03'511.1
2017-May-20 05:30N 62°30' E 006°08'611.8
2017-May-20 05:00N 62°35' E 006°14'612.6
2017-May-20 04:30N 62°39' E 006°24'612.9
2017-May-20 04:00N 62°45' E 006°32'712.9
2017-May-20 03:30N 62°50' E 006°40'612.8
2017-May-20 03:00N 62°55' E 006°47'612.4
2017-May-20 02:29N 62°60' E 006°58'612.9
2017-May-20 02:00N 63°02' E 007°11'612.6
2017-May-20 01:30N 63°04' E 007°23'612.8
2017-May-20 01:00N 63°07' E 007°36'3 5.8
2017-May-20 00:30N 63°05' E 007°40'0 0.0
2017-May-20 00:00N 63°05' E 007°40'4 7.8
2017-May-19 23:30N 63°09' E 007°43'612.4
2017-May-19 23:00N 63°13' E 007°54'612.7
2017-May-19 22:30N 63°16' E 008°07'612.5
2017-May-19 22:00N 63°20' E 008°18'612.3
2017-May-19 21:30N 63°23' E 008°29'612.4
2017-May-19 21:00N 63°26' E 008°42'612.3
2017-May-19 20:30N 63°28' E 008°55'612.8
2017-May-19 20:00N 63°30' E 009°08'612.8
2017-May-19 19:30N 63°34' E 009°20'612.1
2017-May-19 19:00N 63°39' E 009°28'612.5
2017-May-19 18:30N 63°45' E 009°32'612.6
2017-May-19 18:00N 63°50' E 009°38'612.5
2017-May-19 17:29N 63°55' E 009°47'612.4
2017-May-19 17:00N 64°01' E 009°46'612.3
2017-May-19 16:30N 64°08' E 009°46'612.2
2017-May-19 16:00N 64°14' E 009°48'611.9
2017-May-19 15:30N 64°18' E 009°57'612.0
2017-May-19 15:00N 64°22' E 010°08'1212.0
2017-May-19 14:00N 64°31' E 010°27'612.5
2017-May-19 13:30N 64°35' E 010°37'612.3
2017-May-19 13:00N 64°40' E 010°46'612.4
2017-May-19 12:30N 64°44' E 010°57'612.6
2017-May-19 12:00N 64°48' E 011°08'612.2
2017-May-19 11:30N 64°53' E 011°18'612.3
2017-May-19 11:00N 64°58' E 011°24'510.6
2017-May-19 10:30N 65°01' E 011°34'611.9
2017-May-19 10:00N 65°05' E 011°46'612.6
2017-May-19 09:30N 65°10' E 011°53'612.5
2017-May-19 09:00N 65°16' E 011°57'612.0
2017-May-19 08:30N 65°22' E 012°02'611.5
2017-May-19 07:59N 65°27' E 011°56'612.5
2017-May-19 07:30N 65°32' E 012°03'612.5
2017-May-19 07:00N 65°37' E 012°12'612.7
2017-May-19 06:30N 65°43' E 012°17'612.4
2017-May-19 06:00N 65°50' E 012°21'612.1
2017-May-19 05:30N 65°55' E 012°23'612.1
2017-May-19 05:00N 66°00' E 012°32'612.3
2017-May-19 04:30N 66°06' E 012°40'611.8
2017-May-19 04:00N 66°11' E 012°39'611.8
2017-May-19 03:30N 66°17' E 012°39'611.8
2017-May-19 03:00N 66°23' E 012°42'611.0
2017-May-19 02:30N 66°28' E 012°39'611.8
2017-May-19 02:00N 66°34' E 012°42'612.2
2017-May-19 01:30N 66°40' E 012°41'612.0
2017-May-19 01:00N 66°46' E 012°48'611.5
2017-May-19 00:30N 66°51' E 012°55'612.3
2017-May-19 00:00N 66°54' E 013°09'612.2
2017-May-18 23:30N 66°57' E 013°21'612.1
2017-May-18 23:00N 66°60' E 013°35'612.2
2017-May-18 22:30N 67°03' E 013°49'612.1
2017-May-18 22:00N 67°07' E 013°60'612.1
2017-May-18 21:31N 67°12' E 014°06'612.2
2017-May-18 21:01N 67°17' E 014°15'612.4
2017-May-18 20:31N 67°22' E 014°25'612.1
2017-May-18 20:00N 67°28' E 014°28'612.3
2017-May-18 19:30N 67°35' E 014°30'612.5
2017-May-18 19:00N 67°41' E 014°31'612.4
2017-May-18 18:30N 67°47' E 014°32'611.9
2017-May-18 18:00N 67°51' E 014°42'612.1
2017-May-18 17:30N 67°57' E 014°50'612.2
2017-May-18 17:00N 68°02' E 014°59'612.4
2017-May-18 16:30N 68°06' E 015°11'612.4
2017-May-18 16:00N 68°10' E 015°24'612.3
2017-May-18 15:30N 68°13' E 015°37'612.1
2017-May-18 15:00N 68°18' E 015°49'612.3
2017-May-18 14:30N 68°23' E 015°59'1212.1
2017-May-18 13:31N 68°33' E 016°15'612.1
2017-May-18 13:00N 68°34' E 016°32'612.3
2017-May-18 12:30N 68°40' E 016°39'612.2
2017-May-18 12:00N 68°45' E 016°45'612.0
2017-May-18 11:30N 68°51' E 016°54'611.5
2017-May-18 10:59N 68°55' E 017°04'611.7
2017-May-18 10:30N 68°60' E 017°14'611.6
2017-May-18 10:00N 69°05' E 017°23'611.5
2017-May-18 09:30N 69°07' E 017°37'611.8
2017-May-18 09:00N 69°09' E 017°52'4 9.1
2017-May-18 08:30N 69°13' E 017°58'611.2
2017-May-18 08:00N 69°19' E 017°59'510.6
2017-May-18 07:30N 69°24' E 018°06'510.5
2017-May-18 07:00N 69°29' E 018°10'612.0
2017-May-18 06:30N 69°31' E 018°26'611.8
2017-May-18 06:00N 69°33' E 018°42'511.0
2017-May-18 05:31N 69°36' E 018°54'2 3.6
2017-May-18 05:00N 69°38' E 018°56'1 2.6
2017-May-18 04:30N 69°39' E 018°59'5 9.4
2017-May-18 04:00N 69°43' E 019°04'4 9.0
2017-May-18 03:30N 69°47' E 019°13'5 9.3
2017-May-18 03:00N 69°48' E 019°26'5 9.2
2017-May-18 02:30N 69°50' E 019°38'5 9.1
2017-May-18 02:00N 69°53' E 019°49'4 9.1
2017-May-18 01:30N 69°55' E 019°59'5 9.3
2017-May-18 01:00N 69°58' E 020°10'5 9.0
2017-May-18 00:30N 69°60' E 020°23'4 8.9
2017-May-18 00:00N 70°01' E 020°35'5 9.8
2017-May-17 23:30N 70°03' E 020°48'3 5.3
2017-May-17 23:01N 70°05' E 020°46'0 0.0
2017-May-17 22:30N 70°05' E 020°46'1 1.1
2017-May-17 22:01N 70°06' E 020°46'5 9.1
2017-May-17 21:30N 70°10' E 020°52'5 9.4
2017-May-17 21:00N 70°13' E 021°03'510.2
2017-May-17 20:30N 70°16' E 021°16'510.2
2017-May-17 20:01N 70°19' E 021°27'5 9.0
2017-May-17 19:30N 70°22' E 021°37'4 6.2
2017-May-17 18:46N 70°24' E 021°49'310.2
2017-May-17 18:30N 70°24' E 021°57'4 7.3
2017-May-17 18:00N 70°24' E 022°08'510.1
2017-May-17 17:30N 70°24' E 022°23'510.0
2017-May-17 17:00N 70°24' E 022°38'5 9.4
2017-May-17 16:30N 70°22' E 022°51'3 5.4
2017-May-17 16:00N 70°20' E 022°57'1 1.2
2017-May-17 15:31N 70°21' E 022°58'0 0.0
2017-May-17 15:00N 70°21' E 022°58'4 3.6
2017-May-17 13:59N 70°17' E 023°02'612.1
2017-May-17 13:29N 70°11' E 023°04'612.3
2017-May-17 13:00N 70°05' E 023°06'612.4
2017-May-17 12:31N 69°59' E 023°09'3 5.5
2017-May-17 12:00N 69°57' E 023°06'0 0.0
2017-May-17 11:30N 69°57' E 023°06'0 0.0
2017-May-17 11:00N 69°57' E 023°06'2 3.0
2017-May-17 10:30N 69°58' E 023°09'510.2
2017-May-17 10:00N 70°03' E 023°08'510.2
2017-May-17 09:30N 70°08' E 023°06'510.3
2017-May-17 09:00N 70°13' E 023°04'12 9.8
2017-May-17 07:48N 70°24' E 022°49'3 9.3
2017-May-17 07:30N 70°26' E 022°50'5 9.8
2017-May-17 07:00N 70°30' E 022°58'5 9.5
2017-May-17 06:30N 70°34' E 023°07'5 9.6
2017-May-17 06:00N 70°38' E 023°17'5 9.4
2017-May-17 05:30N 70°41' E 023°26'5 9.5
2017-May-17 05:00N 70°45' E 023°36'5 9.8
2017-May-17 04:30N 70°48' E 023°47'510.2
2017-May-17 04:00N 70°51' E 023°59'5 9.9
2017-May-17 03:30N 70°55' E 024°10'5 9.8
2017-May-17 03:00N 70°58' E 024°20'5 9.8
2017-May-17 02:30N 71°01' E 024°32'5 9.4
2017-May-17 02:00N 71°01' E 024°46'510.1
2017-May-17 01:30N 70°59' E 025°01'510.1
2017-May-17 01:00N 70°59' E 025°16'5 9.6
2017-May-17 00:30N 70°57' E 025°29'4 7.2
2017-May-17 00:00N 70°54' E 025°34'0 0.0
2017-May-16 23:30N 70°54' E 025°34'0 0.0
2017-May-16 23:00N 70°54' E 025°34'0 0.0
2017-May-16 22:30N 70°54' E 025°34'0 0.0
2017-May-16 22:00N 70°54' E 025°34'0 0.0
2017-May-16 21:30N 70°54' E 025°34'0 0.0
2017-May-16 21:00N 70°54' E 025°34'0 0.0
2017-May-16 20:30N 70°54' E 025°34'1 2.1
2017-May-16 20:00N 70°55' E 025°35'611.4
2017-May-16 19:30N 70°57' E 025°51'611.9
2017-May-16 19:00N 70°59' E 026°08'611.8
2017-May-16 18:30N 71°01' E 026°26'611.4
2017-May-16 18:00N 71°03' E 026°42'511.1
2017-May-16 17:30N 71°05' E 026°58'510.8
2017-May-16 17:00N 71°06' E 027°14'510.7
2017-May-16 16:31N 71°08' E 027°29'510.6
2017-May-16 16:00N 71°09' E 027°46'611.2
2017-May-16 15:30N 71°08' E 028°03'510.7
2017-May-16 15:00N 71°06' E 028°19'611.1
2017-May-16 14:30N 71°03' E 028°33'1111.0
2017-May-16 13:30N 70°58' E 029°02'611.1
2017-May-16 13:00N 70°55' E 029°16'511.1
2017-May-16 12:30N 70°51' E 029°30'611.1
2017-May-16 12:00N 70°48' E 029°45'611.1
2017-May-16 11:30N 70°46' E 030°00'611.2
2017-May-16 11:00N 70°43' E 030°13'611.5
2017-May-16 10:30N 70°39' E 030°26'611.4
2017-May-16 10:00N 70°35' E 030°38'611.2
2017-May-16 09:30N 70°31' E 030°49'611.0
2017-May-16 09:00N 70°27' E 031°01'611.2
2017-May-16 08:30N 70°21' E 031°06'611.1
2017-May-16 08:00N 70°17' E 031°15'611.5
2017-May-16 07:31N 70°12' E 031°25'510.7
2017-May-16 07:00N 70°08' E 031°36'510.3
2017-May-16 06:31N 70°06' E 031°49'2 0.0
2017-May-14 21:00N 70°05' E 031°53'5 9.1
2017-May-14 20:30N 70°07' E 031°41'510.2
2017-May-14 20:00N 70°10' E 031°30'510.4
2017-May-14 19:30N 70°14' E 031°20'510.5
2017-May-14 19:00N 70°19' E 031°10'510.6
2017-May-14 18:30N 70°23' E 031°03'611.2
2017-May-14 18:00N 70°28' E 030°57'611.1
2017-May-14 17:30N 70°32' E 030°45'  

Dump ship's entire track history